sensor_id;sensor_type;location;lat;lon;timestamp;temperature;humidity
9215;DHT22;4642;51.364;6.788;2023-03-03T00:01:01;1.60;99.90
9215;DHT22;4642;51.364;6.788;2023-03-03T00:03:26;1.60;99.90
9215;DHT22;4642;51.364;6.788;2023-03-03T00:05:53;1.60;99.90
9215;DHT22;4642;51.364;6.788;2023-03-03T00:08:19;1.60;99.90
9215;DHT22;4642;51.364;6.788;2023-03-03T00:10:46;1.60;99.90
9215;DHT22;4642;51.364;6.788;2023-03-03T00:13:16;1.60;99.90
9215;DHT22;4642;51.364;6.788;2023-03-03T00:15:43;1.60;99.90
9215;DHT22;4642;51.364;6.788;2023-03-03T00:18:24;1.70;99.90
9215;DHT22;4642;51.364;6.788;2023-03-03T00:20:57;1.60;99.90
9215;DHT22;4642;51.364;6.788;2023-03-03T00:23:39;1.70;99.90
9215;DHT22;4642;51.364;6.788;2023-03-03T00:26:34;1.70;99.90
9215;DHT22;4642;51.364;6.788;2023-03-03T00:29:00;1.70;99.90
9215;DHT22;4642;51.364;6.788;2023-03-03T00:31:34;1.70;99.90
9215;DHT22;4642;51.364;6.788;2023-03-03T00:34:23;1.70;99.90
9215;DHT22;4642;51.364;6.788;2023-03-03T00:36:56;1.70;99.90
9215;DHT22;4642;51.364;6.788;2023-03-03T00:39:29;1.70;99.90
9215;DHT22;4642;51.364;6.788;2023-03-03T00:41:56;1.70;99.90
9215;DHT22;4642;51.364;6.788;2023-03-03T00:50:24;1.80;99.90
9215;DHT22;4642;51.364;6.788;2023-03-03T00:53:03;1.80;99.90
9215;DHT22;4642;51.364;6.788;2023-03-03T00:55:30;1.80;99.90
9215;DHT22;4642;51.364;6.788;2023-03-03T00:57:56;1.80;99.90
9215;DHT22;4642;51.364;6.788;2023-03-03T01:00:22;1.80;99.90
9215;DHT22;4642;51.364;6.788;2023-03-03T01:02:47;1.80;99.90
9215;DHT22;4642;51.364;6.788;2023-03-03T01:05:15;1.80;99.90
9215;DHT22;4642;51.364;6.788;2023-03-03T01:07:41;1.80;99.90
9215;DHT22;4642;51.364;6.788;2023-03-03T01:10:07;1.80;99.90
9215;DHT22;4642;51.364;6.788;2023-03-03T01:12:32;1.80;99.90
9215;DHT22;4642;51.364;6.788;2023-03-03T01:14:58;1.80;99.90
9215;DHT22;4642;51.364;6.788;2023-03-03T01:17:24;1.80;99.90
9215;DHT22;4642;51.364;6.788;2023-03-03T01:19:49;1.80;99.90
9215;DHT22;4642;51.364;6.788;2023-03-03T01:22:15;1.80;99.90
9215;DHT22;4642;51.364;6.788;2023-03-03T01:24:40;1.80;99.90
9215;DHT22;4642;51.364;6.788;2023-03-03T01:27:06;1.80;99.90
9215;DHT22;4642;51.364;6.788;2023-03-03T01:29:31;1.80;99.90
9215;DHT22;4642;51.364;6.788;2023-03-03T01:31:57;1.80;99.90
9215;DHT22;4642;51.364;6.788;2023-03-03T01:34:23;1.80;99.90
9215;DHT22;4642;51.364;6.788;2023-03-03T01:36:49;1.80;99.90
9215;DHT22;4642;51.364;6.788;2023-03-03T01:39:14;1.80;99.90
9215;DHT22;4642;51.364;6.788;2023-03-03T01:41:40;1.90;99.90
9215;DHT22;4642;51.364;6.788;2023-03-03T01:44:05;1.80;99.90
9215;DHT22;4642;51.364;6.788;2023-03-03T01:49:10;1.80;99.90
9215;DHT22;4642;51.364;6.788;2023-03-03T01:51:42;1.80;99.90
9215;DHT22;4642;51.364;6.788;2023-03-03T01:54:17;1.80;99.90
9215;DHT22;4642;51.364;6.788;2023-03-03T01:56:44;1.80;99.90
9215;DHT22;4642;51.364;6.788;2023-03-03T01:59:33;1.80;99.90
9215;DHT22;4642;51.364;6.788;2023-03-03T02:02:00;1.90;99.90
9215;DHT22;4642;51.364;6.788;2023-03-03T02:04:25;1.80;99.90
9215;DHT22;4642;51.364;6.788;2023-03-03T02:06:59;1.90;99.90
9215;DHT22;4642;51.364;6.788;2023-03-03T02:12:39;1.90;99.90
9215;DHT22;4642;51.364;6.788;2023-03-03T02:15:33;1.90;99.90
9215;DHT22;4642;51.364;6.788;2023-03-03T02:18:08;1.90;99.90
9215;DHT22;4642;51.364;6.788;2023-03-03T02:20:52;1.90;99.90
9215;DHT22;4642;51.364;6.788;2023-03-03T02:26:35;1.90;99.90
9215;DHT22;4642;51.364;6.788;2023-03-03T02:28:59;1.90;99.90
9215;DHT22;4642;51.364;6.788;2023-03-03T02:31:28;1.90;99.90
9215;DHT22;4642;51.364;6.788;2023-03-03T02:33:54;1.90;99.90
9215;DHT22;4642;51.364;6.788;2023-03-03T02:36:28;1.90;99.90
9215;DHT22;4642;51.364;6.788;2023-03-03T02:41:57;1.90;99.90
9215;DHT22;4642;51.364;6.788;2023-03-03T02:44:27;1.90;99.90
9215;DHT22;4642;51.364;6.788;2023-03-03T02:46:55;1.80;99.90
9215;DHT22;4642;51.364;6.788;2023-03-03T02:49:26;1.80;99.90
9215;DHT22;4642;51.364;6.788;2023-03-03T02:51:52;1.80;99.90
9215;DHT22;4642;51.364;6.788;2023-03-03T02:54:20;1.80;99.90
9215;DHT22;4642;51.364;6.788;2023-03-03T02:56:46;1.80;99.90
9215;DHT22;4642;51.364;6.788;2023-03-03T02:59:12;1.80;99.90
9215;DHT22;4642;51.364;6.788;2023-03-03T03:01:38;1.80;99.90
9215;DHT22;4642;51.364;6.788;2023-03-03T03:04:10;1.80;99.90
9215;DHT22;4642;51.364;6.788;2023-03-03T03:06:36;1.80;99.90
9215;DHT22;4642;51.364;6.788;2023-03-03T03:09:04;1.80;99.90
9215;DHT22;4642;51.364;6.788;2023-03-03T03:11:29;2.00;99.90
9215;DHT22;4642;51.364;6.788;2023-03-03T03:13:55;1.80;99.90
9215;DHT22;4642;51.364;6.788;2023-03-03T03:16:21;1.80;99.90
9215;DHT22;4642;51.364;6.788;2023-03-03T03:18:46;1.80;99.90
9215;DHT22;4642;51.364;6.788;2023-03-03T03:21:12;1.80;99.90
9215;DHT22;4642;51.364;6.788;2023-03-03T03:23:39;1.80;99.90
9215;DHT22;4642;51.364;6.788;2023-03-03T03:26:05;1.80;99.90
9215;DHT22;4642;51.364;6.788;2023-03-03T03:28:31;1.80;99.90
9215;DHT22;4642;51.364;6.788;2023-03-03T03:30:57;1.80;99.90
9215;DHT22;4642;51.364;6.788;2023-03-03T03:33:23;1.80;99.90
9215;DHT22;4642;51.364;6.788;2023-03-03T03:35:49;1.80;99.90
9215;DHT22;4642;51.364;6.788;2023-03-03T03:38:15;1.80;99.90
9215;DHT22;4642;51.364;6.788;2023-03-03T03:40:41;1.80;99.90
9215;DHT22;4642;51.364;6.788;2023-03-03T03:43:06;1.80;99.90
9215;DHT22;4642;51.364;6.788;2023-03-03T03:45:32;1.80;99.90
9215;DHT22;4642;51.364;6.788;2023-03-03T03:47:58;1.80;99.90
9215;DHT22;4642;51.364;6.788;2023-03-03T03:50:24;1.80;99.90
9215;DHT22;4642;51.364;6.788;2023-03-03T03:52:50;1.80;99.90
9215;DHT22;4642;51.364;6.788;2023-03-03T03:55:15;1.80;99.90
9215;DHT22;4642;51.364;6.788;2023-03-03T03:57:41;1.80;99.90
9215;DHT22;4642;51.364;6.788;2023-03-03T04:00:08;1.80;99.90
9215;DHT22;4642;51.364;6.788;2023-03-03T04:02:35;1.80;99.90
9215;DHT22;4642;51.364;6.788;2023-03-03T04:05:01;1.80;99.90
9215;DHT22;4642;51.364;6.788;2023-03-03T04:07:26;1.80;99.90
9215;DHT22;4642;51.364;6.788;2023-03-03T04:09:52;1.80;99.90
9215;DHT22;4642;51.364;6.788;2023-03-03T04:12:18;1.80;99.90
9215;DHT22;4642;51.364;6.788;2023-03-03T04:14:43;1.80;99.90
9215;DHT22;4642;51.364;6.788;2023-03-03T04:17:20;1.80;99.90
9215;DHT22;4642;51.364;6.788;2023-03-03T04:19:46;1.80;99.90
9215;DHT22;4642;51.364;6.788;2023-03-03T04:22:12;1.80;99.90
9215;DHT22;4642;51.364;6.788;2023-03-03T04:24:39;1.80;99.90
9215;DHT22;4642;51.364;6.788;2023-03-03T04:27:05;1.80;99.90
9215;DHT22;4642;51.364;6.788;2023-03-03T04:29:30;1.80;99.90
9215;DHT22;4642;51.364;6.788;2023-03-03T04:31:56;1.80;99.90
9215;DHT22;4642;51.364;6.788;2023-03-03T04:34:22;1.80;99.90
9215;DHT22;4642;51.364;6.788;2023-03-03T04:36:47;1.80;99.90
9215;DHT22;4642;51.364;6.788;2023-03-03T04:39:13;1.70;99.90
9215;DHT22;4642;51.364;6.788;2023-03-03T04:41:38;1.80;99.90
9215;DHT22;4642;51.364;6.788;2023-03-03T04:44:04;1.80;99.90
9215;DHT22;4642;51.364;6.788;2023-03-03T04:46:29;1.70;99.90
9215;DHT22;4642;51.364;6.788;2023-03-03T04:48:55;1.80;99.90
9215;DHT22;4642;51.364;6.788;2023-03-03T04:51:21;1.80;99.90
9215;DHT22;4642;51.364;6.788;2023-03-03T04:53:47;1.80;99.90
9215;DHT22;4642;51.364;6.788;2023-03-03T04:56:13;1.70;99.90
9215;DHT22;4642;51.364;6.788;2023-03-03T04:58:38;1.70;99.90
9215;DHT22;4642;51.364;6.788;2023-03-03T05:01:04;1.80;99.90
9215;DHT22;4642;51.364;6.788;2023-03-03T05:03:30;1.70;99.90
9215;DHT22;4642;51.364;6.788;2023-03-03T05:05:56;1.70;99.90
9215;DHT22;4642;51.364;6.788;2023-03-03T05:08:22;1.70;99.90
9215;DHT22;4642;51.364;6.788;2023-03-03T05:10:51;1.70;99.90
9215;DHT22;4642;51.364;6.788;2023-03-03T05:13:17;1.70;99.90
9215;DHT22;4642;51.364;6.788;2023-03-03T05:15:43;1.70;99.90
9215;DHT22;4642;51.364;6.788;2023-03-03T05:18:13;1.70;99.90
9215;DHT22;4642;51.364;6.788;2023-03-03T05:20:39;1.60;99.90
9215;DHT22;4642;51.364;6.788;2023-03-03T05:23:06;1.60;99.90
9215;DHT22;4642;51.364;6.788;2023-03-03T05:25:31;1.50;99.90
9215;DHT22;4642;51.364;6.788;2023-03-03T05:27:57;1.50;99.90
9215;DHT22;4642;51.364;6.788;2023-03-03T05:30:23;1.50;99.90
9215;DHT22;4642;51.364;6.788;2023-03-03T05:32:49;1.50;99.90
9215;DHT22;4642;51.364;6.788;2023-03-03T05:35:14;1.50;99.90
9215;DHT22;4642;51.364;6.788;2023-03-03T05:37:40;1.50;99.90
9215;DHT22;4642;51.364;6.788;2023-03-03T05:40:11;1.40;99.90
9215;DHT22;4642;51.364;6.788;2023-03-03T05:42:37;1.50;99.90
9215;DHT22;4642;51.364;6.788;2023-03-03T05:45:03;1.40;99.90
9215;DHT22;4642;51.364;6.788;2023-03-03T05:47:29;1.40;99.90
9215;DHT22;4642;51.364;6.788;2023-03-03T05:49:54;1.40;99.90
9215;DHT22;4642;51.364;6.788;2023-03-03T05:52:20;1.40;99.90
9215;DHT22;4642;51.364;6.788;2023-03-03T05:54:46;1.40;99.90
9215;DHT22;4642;51.364;6.788;2023-03-03T05:57:11;1.40;99.90
9215;DHT22;4642;51.364;6.788;2023-03-03T05:59:37;1.40;99.90
9215;DHT22;4642;51.364;6.788;2023-03-03T06:02:02;1.30;99.90
9215;DHT22;4642;51.364;6.788;2023-03-03T06:04:28;1.30;99.90
9215;DHT22;4642;51.364;6.788;2023-03-03T06:06:53;1.30;99.90
9215;DHT22;4642;51.364;6.788;2023-03-03T06:09:19;1.40;99.90
9215;DHT22;4642;51.364;6.788;2023-03-03T06:11:45;1.30;99.90
9215;DHT22;4642;51.364;6.788;2023-03-03T06:14:11;1.30;99.90
9215;DHT22;4642;51.364;6.788;2023-03-03T06:16:36;1.40;99.90
9215;DHT22;4642;51.364;6.788;2023-03-03T06:19:02;1.40;99.90
9215;DHT22;4642;51.364;6.788;2023-03-03T06:21:27;1.40;99.90
9215;DHT22;4642;51.364;6.788;2023-03-03T06:23:53;1.40;99.90
9215;DHT22;4642;51.364;6.788;2023-03-03T06:26:18;1.40;99.90
9215;DHT22;4642;51.364;6.788;2023-03-03T06:28:44;1.40;99.90
9215;DHT22;4642;51.364;6.788;2023-03-03T06:31:09;1.40;99.90
9215;DHT22;4642;51.364;6.788;2023-03-03T06:33:35;1.40;99.90
9215;DHT22;4642;51.364;6.788;2023-03-03T06:36:01;1.40;99.90
9215;DHT22;4642;51.364;6.788;2023-03-03T06:38:27;1.50;99.90
9215;DHT22;4642;51.364;6.788;2023-03-03T06:40:52;1.50;99.90
9215;DHT22;4642;51.364;6.788;2023-03-03T06:43:18;1.50;99.90
9215;DHT22;4642;51.364;6.788;2023-03-03T06:45:44;1.50;99.90
9215;DHT22;4642;51.364;6.788;2023-03-03T06:48:10;1.50;99.90
9215;DHT22;4642;51.364;6.788;2023-03-03T06:50:36;1.90;99.90
9215;DHT22;4642;51.364;6.788;2023-03-03T06:53:12;1.60;99.90
9215;DHT22;4642;51.364;6.788;2023-03-03T06:55:38;1.60;99.90
9215;DHT22;4642;51.364;6.788;2023-03-03T06:58:19;1.60;99.90
9215;DHT22;4642;51.364;6.788;2023-03-03T07:00:57;1.60;99.90
9215;DHT22;4642;51.364;6.788;2023-03-03T07:03:25;1.60;99.90
9215;DHT22;4642;51.364;6.788;2023-03-03T07:05:52;1.60;99.90
9215;DHT22;4642;51.364;6.788;2023-03-03T07:08:21;1.70;99.90
9215;DHT22;4642;51.364;6.788;2023-03-03T07:10:48;1.70;99.90
9215;DHT22;4642;51.364;6.788;2023-03-03T07:13:25;1.70;99.90
9215;DHT22;4642;51.364;6.788;2023-03-03T07:15:52;1.70;99.90
9215;DHT22;4642;51.364;6.788;2023-03-03T07:21:32;1.70;99.90
9215;DHT22;4642;51.364;6.788;2023-03-03T07:23:59;1.70;99.90
9215;DHT22;4642;51.364;6.788;2023-03-03T07:26:28;1.70;99.90
9215;DHT22;4642;51.364;6.788;2023-03-03T07:29:46;1.70;99.90
9215;DHT22;4642;51.364;6.788;2023-03-03T07:31:47;1.70;99.90
9215;DHT22;4642;51.364;6.788;2023-03-03T07:34:29;1.80;99.90
9215;DHT22;4642;51.364;6.788;2023-03-03T07:37:01;1.70;99.90
9215;DHT22;4642;51.364;6.788;2023-03-03T07:39:41;1.70;99.90
9215;DHT22;4642;51.364;6.788;2023-03-03T07:42:17;1.80;99.90
9215;DHT22;4642;51.364;6.788;2023-03-03T07:44:45;1.80;99.90
9215;DHT22;4642;51.364;6.788;2023-03-03T07:47:25;1.80;99.90
9215;DHT22;4642;51.364;6.788;2023-03-03T07:49:53;1.80;99.90
9215;DHT22;4642;51.364;6.788;2023-03-03T07:55:00;1.80;99.90
9215;DHT22;4642;51.364;6.788;2023-03-03T07:57:33;1.90;99.90
9215;DHT22;4642;51.364;6.788;2023-03-03T08:02:54;1.90;99.90
9215;DHT22;4642;51.364;6.788;2023-03-03T08:05:35;1.90;99.90
9215;DHT22;4642;51.364;6.788;2023-03-03T08:10:35;2.00;99.90
9215;DHT22;4642;51.364;6.788;2023-03-03T08:13:10;2.00;99.90
9215;DHT22;4642;51.364;6.788;2023-03-03T08:15:38;2.00;99.90
9215;DHT22;4642;51.364;6.788;2023-03-03T08:18:16;1.90;99.90
9215;DHT22;4642;51.364;6.788;2023-03-03T08:20:48;2.00;99.90
9215;DHT22;4642;51.364;6.788;2023-03-03T08:23:15;2.00;99.90
9215;DHT22;4642;51.364;6.788;2023-03-03T08:25:42;2.00;99.90
9215;DHT22;4642;51.364;6.788;2023-03-03T08:28:09;2.00;99.90
9215;DHT22;4642;51.364;6.788;2023-03-03T08:30:34;2.00;99.90
9215;DHT22;4642;51.364;6.788;2023-03-03T08:33:00;2.10;99.90
9215;DHT22;4642;51.364;6.788;2023-03-03T08:35:26;2.10;99.90
9215;DHT22;4642;51.364;6.788;2023-03-03T08:37:51;2.10;99.90
9215;DHT22;4642;51.364;6.788;2023-03-03T08:40:17;2.10;99.90
9215;DHT22;4642;51.364;6.788;2023-03-03T08:42:42;2.10;99.90
9215;DHT22;4642;51.364;6.788;2023-03-03T08:45:08;2.10;99.90
9215;DHT22;4642;51.364;6.788;2023-03-03T08:47:34;2.20;99.90
9215;DHT22;4642;51.364;6.788;2023-03-03T08:49:59;2.20;99.90
9215;DHT22;4642;51.364;6.788;2023-03-03T08:52:25;2.20;99.90
9215;DHT22;4642;51.364;6.788;2023-03-03T08:54:51;2.20;99.90
9215;DHT22;4642;51.364;6.788;2023-03-03T08:57:16;2.30;99.90
9215;DHT22;4642;51.364;6.788;2023-03-03T08:59:43;2.20;99.90
9215;DHT22;4642;51.364;6.788;2023-03-03T09:02:08;2.30;99.90
9215;DHT22;4642;51.364;6.788;2023-03-03T09:04:34;2.30;99.90
9215;DHT22;4642;51.364;6.788;2023-03-03T09:07:00;2.30;99.90
9215;DHT22;4642;51.364;6.788;2023-03-03T09:09:26;2.30;99.90
9215;DHT22;4642;51.364;6.788;2023-03-03T09:11:56;2.30;99.90
9215;DHT22;4642;51.364;6.788;2023-03-03T09:14:26;2.30;99.90
9215;DHT22;4642;51.364;6.788;2023-03-03T09:16:54;2.30;99.90
9215;DHT22;4642;51.364;6.788;2023-03-03T09:19:30;2.30;99.90
9215;DHT22;4642;51.364;6.788;2023-03-03T09:22:22;2.30;99.90
9215;DHT22;4642;51.364;6.788;2023-03-03T09:24:49;2.30;99.90
9215;DHT22;4642;51.364;6.788;2023-03-03T09:27:27;2.40;99.90
9215;DHT22;4642;51.364;6.788;2023-03-03T09:29:53;2.40;99.90
9215;DHT22;4642;51.364;6.788;2023-03-03T09:32:34;2.40;99.90
9215;DHT22;4642;51.364;6.788;2023-03-03T09:35:35;2.50;99.90
9215;DHT22;4642;51.364;6.788;2023-03-03T09:38:25;2.50;99.90
9215;DHT22;4642;51.364;6.788;2023-03-03T09:41:58;2.50;99.90
9215;DHT22;4642;51.364;6.788;2023-03-03T09:46:50;2.60;99.90
9215;DHT22;4642;51.364;6.788;2023-03-03T09:49:29;2.60;99.90
9215;DHT22;4642;51.364;6.788;2023-03-03T09:52:18;2.60;99.90
9215;DHT22;4642;51.364;6.788;2023-03-03T10:00:46;2.70;99.90
9215;DHT22;4642;51.364;6.788;2023-03-03T10:03:22;2.70;99.90
9215;DHT22;4642;51.364;6.788;2023-03-03T10:06:03;2.80;99.90
9215;DHT22;4642;51.364;6.788;2023-03-03T10:11:48;2.80;99.90
9215;DHT22;4642;51.364;6.788;2023-03-03T10:14:45;2.90;99.90
9215;DHT22;4642;51.364;6.788;2023-03-03T10:20:21;3.00;99.90
9215;DHT22;4642;51.364;6.788;2023-03-03T10:22:52;3.00;99.90
9215;DHT22;4642;51.364;6.788;2023-03-03T10:36:54;3.20;99.90
9215;DHT22;4642;51.364;6.788;2023-03-03T10:42:19;3.30;99.90
9215;DHT22;4642;51.364;6.788;2023-03-03T10:45:10;3.30;99.90
9215;DHT22;4642;51.364;6.788;2023-03-03T10:53:33;3.40;99.90
9215;DHT22;4642;51.364;6.788;2023-03-03T10:58:55;3.50;99.90
9215;DHT22;4642;51.364;6.788;2023-03-03T11:01:55;3.50;99.90
9215;DHT22;4642;51.364;6.788;2023-03-03T11:07:30;3.50;99.90
9215;DHT22;4642;51.364;6.788;2023-03-03T11:10:26;3.60;99.90
9215;DHT22;4642;51.364;6.788;2023-03-03T11:13:03;3.60;99.90
9215;DHT22;4642;51.364;6.788;2023-03-03T11:15:44;3.60;99.90
9215;DHT22;4642;51.364;6.788;2023-03-03T11:18:31;3.70;99.90
9215;DHT22;4642;51.364;6.788;2023-03-03T11:21:08;3.70;99.90
9215;DHT22;4642;51.364;6.788;2023-03-03T11:23:49;3.70;99.90
9215;DHT22;4642;51.364;6.788;2023-03-03T11:29:26;3.70;99.90
9215;DHT22;4642;51.364;6.788;2023-03-03T11:35:12;3.90;99.90
9215;DHT22;4642;51.364;6.788;2023-03-03T11:40:24;4.00;99.90
9215;DHT22;4642;51.364;6.788;2023-03-03T11:43:40;4.20;99.90
9215;DHT22;4642;51.364;6.788;2023-03-03T11:45:53;4.20;99.90
9215;DHT22;4642;51.364;6.788;2023-03-03T11:50:59;4.30;99.90
9215;DHT22;4642;51.364;6.788;2023-03-03T11:56:21;4.30;99.90
9215;DHT22;4642;51.364;6.788;2023-03-03T11:58:57;4.40;99.90
9215;DHT22;4642;51.364;6.788;2023-03-03T12:01:35;4.40;99.90
9215;DHT22;4642;51.364;6.788;2023-03-03T12:04:03;4.50;99.90
9215;DHT22;4642;51.364;6.788;2023-03-03T12:12:14;4.60;99.90
9215;DHT22;4642;51.364;6.788;2023-03-03T12:14:58;4.60;99.90
9215;DHT22;4642;51.364;6.788;2023-03-03T12:26:35;4.80;99.90
9215;DHT22;4642;51.364;6.788;2023-03-03T12:29:04;4.90;99.90
9215;DHT22;4642;51.364;6.788;2023-03-03T12:31:45;5.00;99.90
9215;DHT22;4642;51.364;6.788;2023-03-03T12:34:34;4.90;99.90
9215;DHT22;4642;51.364;6.788;2023-03-03T12:45:06;5.10;99.90
9215;DHT22;4642;51.364;6.788;2023-03-03T12:48:00;5.20;99.90
9215;DHT22;4642;51.364;6.788;2023-03-03T12:56:05;5.20;99.90
9215;DHT22;4642;51.364;6.788;2023-03-03T13:04:49;5.10;99.90
9215;DHT22;4642;51.364;6.788;2023-03-03T13:07:30;5.00;99.90
9215;DHT22;4642;51.364;6.788;2023-03-03T13:10:10;5.10;99.90
9215;DHT22;4642;51.364;6.788;2023-03-03T13:16:01;5.20;99.90
9215;DHT22;4642;51.364;6.788;2023-03-03T13:21:11;5.40;99.90
9215;DHT22;4642;51.364;6.788;2023-03-03T13:23:48;5.40;99.90
9215;DHT22;4642;51.364;6.788;2023-03-03T13:31:48;5.30;99.90
9215;DHT22;4642;51.364;6.788;2023-03-03T13:34:45;5.40;99.90
9215;DHT22;4642;51.364;6.788;2023-03-03T13:37:28;5.40;99.90
9215;DHT22;4642;51.364;6.788;2023-03-03T13:42:28;5.40;99.90
9215;DHT22;4642;51.364;6.788;2023-03-03T13:44:59;5.30;99.90
9215;DHT22;4642;51.364;6.788;2023-03-03T13:47:45;5.30;99.90
9215;DHT22;4642;51.364;6.788;2023-03-03T13:50:29;5.30;99.90
9215;DHT22;4642;51.364;6.788;2023-03-03T13:53:25;5.30;99.90
9215;DHT22;4642;51.364;6.788;2023-03-03T13:56:22;5.30;99.90
9215;DHT22;4642;51.364;6.788;2023-03-03T14:01:41;5.20;99.90
9215;DHT22;4642;51.364;6.788;2023-03-03T14:04:28;5.20;99.90
9215;DHT22;4642;51.364;6.788;2023-03-03T14:07:11;5.10;99.90
9215;DHT22;4642;51.364;6.788;2023-03-03T14:10:10;5.10;99.90
9215;DHT22;4642;51.364;6.788;2023-03-03T14:15:40;5.20;99.90
9215;DHT22;4642;51.364;6.788;2023-03-03T14:18:21;5.30;99.90
9215;DHT22;4642;51.364;6.788;2023-03-03T14:21:06;5.40;99.90
9215;DHT22;4642;51.364;6.788;2023-03-03T14:24:02;5.40;99.90
9215;DHT22;4642;51.364;6.788;2023-03-03T14:26:45;5.30;99.90
9215;DHT22;4642;51.364;6.788;2023-03-03T14:31:59;5.50;99.90
9215;DHT22;4642;51.364;6.788;2023-03-03T14:34:34;5.50;99.90
9215;DHT22;4642;51.364;6.788;2023-03-03T14:40:06;5.60;99.90
9215;DHT22;4642;51.364;6.788;2023-03-03T14:42:37;5.60;99.90
9215;DHT22;4642;51.364;6.788;2023-03-03T14:45:39;5.60;99.90
9215;DHT22;4642;51.364;6.788;2023-03-03T14:48:20;5.60;99.90
9215;DHT22;4642;51.364;6.788;2023-03-03T14:50:59;5.70;99.90
9215;DHT22;4642;51.364;6.788;2023-03-03T14:53:42;5.70;99.90
9215;DHT22;4642;51.364;6.788;2023-03-03T14:56:19;5.80;99.90
9215;DHT22;4642;51.364;6.788;2023-03-03T14:58:47;5.80;99.90
9215;DHT22;4642;51.364;6.788;2023-03-03T15:01:19;5.80;99.90
9215;DHT22;4642;51.364;6.788;2023-03-03T15:04:04;6.00;99.90
9215;DHT22;4642;51.364;6.788;2023-03-03T15:06:45;5.90;99.90
9215;DHT22;4642;51.364;6.788;2023-03-03T15:09:31;6.00;99.90
9215;DHT22;4642;51.364;6.788;2023-03-03T15:12:20;6.00;99.90
9215;DHT22;4642;51.364;6.788;2023-03-03T15:14:49;6.10;99.90
9215;DHT22;4642;51.364;6.788;2023-03-03T15:17:35;6.10;99.90
9215;DHT22;4642;51.364;6.788;2023-03-03T15:22:49;6.10;99.90
9215;DHT22;4642;51.364;6.788;2023-03-03T15:34:25;6.40;99.90
9215;DHT22;4642;51.364;6.788;2023-03-03T15:37:12;6.40;99.90
9215;DHT22;4642;51.364;6.788;2023-03-03T15:40:47;6.50;99.90
9215;DHT22;4642;51.364;6.788;2023-03-03T15:48:40;6.70;99.90
9215;DHT22;4642;51.364;6.788;2023-03-03T15:54:27;6.60;99.90
9215;DHT22;4642;51.364;6.788;2023-03-03T15:56:57;6.60;99.90
9215;DHT22;4642;51.364;6.788;2023-03-03T16:02:41;6.60;99.90
9215;DHT22;4642;51.364;6.788;2023-03-03T16:05:30;6.50;99.90
9215;DHT22;4642;51.364;6.788;2023-03-03T16:08:26;6.50;99.90
9215;DHT22;4642;51.364;6.788;2023-03-03T16:11:14;6.50;99.90
9215;DHT22;4642;51.364;6.788;2023-03-03T16:22:53;6.20;99.90
9215;DHT22;4642;51.364;6.788;2023-03-03T16:28:05;6.20;99.90
9215;DHT22;4642;51.364;6.788;2023-03-03T16:30:45;6.20;99.90
9215;DHT22;4642;51.364;6.788;2023-03-03T16:33:18;6.10;99.90
9215;DHT22;4642;51.364;6.788;2023-03-03T16:36:03;6.00;99.90
9215;DHT22;4642;51.364;6.788;2023-03-03T16:38:43;6.00;99.90
9215;DHT22;4642;51.364;6.788;2023-03-03T16:41:20;5.90;99.90
9215;DHT22;4642;51.364;6.788;2023-03-03T16:43:56;5.90;99.90
9215;DHT22;4642;51.364;6.788;2023-03-03T16:46:36;5.80;99.90
9215;DHT22;4642;51.364;6.788;2023-03-03T16:49:31;5.70;99.90
9215;DHT22;4642;51.364;6.788;2023-03-03T16:52:07;5.60;99.90
9215;DHT22;4642;51.364;6.788;2023-03-03T17:00:13;5.30;99.90
9215;DHT22;4642;51.364;6.788;2023-03-03T17:21:13;4.60;99.90
9215;DHT22;4642;51.364;6.788;2023-03-03T17:32:31;4.20;99.90
9215;DHT22;4642;51.364;6.788;2023-03-03T17:35:20;4.10;99.90
9215;DHT22;4642;51.364;6.788;2023-03-03T17:37:57;4.00;99.90
9215;DHT22;4642;51.364;6.788;2023-03-03T17:45:54;3.60;99.90
9215;DHT22;4642;51.364;6.788;2023-03-03T17:48:26;3.50;99.90
9215;DHT22;4642;51.364;6.788;2023-03-03T17:54:20;3.40;99.90
9215;DHT22;4642;51.364;6.788;2023-03-03T17:57:10;3.30;99.90
9215;DHT22;4642;51.364;6.788;2023-03-03T18:05:17;3.10;99.90
9215;DHT22;4642;51.364;6.788;2023-03-03T18:08:28;3.00;99.90
9215;DHT22;4642;51.364;6.788;2023-03-03T18:13:54;2.90;99.90
9215;DHT22;4642;51.364;6.788;2023-03-03T18:24:32;2.60;99.90
9215;DHT22;4642;51.364;6.788;2023-03-03T18:27:26;2.50;99.90
9215;DHT22;4642;51.364;6.788;2023-03-03T18:37:50;2.30;99.90
9215;DHT22;4642;51.364;6.788;2023-03-03T18:46:11;2.30;99.90
9215;DHT22;4642;51.364;6.788;2023-03-03T19:07:47;2.40;99.90
9215;DHT22;4642;51.364;6.788;2023-03-03T19:12:54;2.40;99.90
9215;DHT22;4642;51.364;6.788;2023-03-03T19:18:17;2.50;99.90
9215;DHT22;4642;51.364;6.788;2023-03-03T19:20:51;2.50;99.90
9215;DHT22;4642;51.364;6.788;2023-03-03T19:23:20;2.50;99.90
9215;DHT22;4642;51.364;6.788;2023-03-03T19:26:19;2.50;99.90
9215;DHT22;4642;51.364;6.788;2023-03-03T19:34:38;2.50;99.90
9215;DHT22;4642;51.364;6.788;2023-03-03T19:43:07;2.60;99.90
9215;DHT22;4642;51.364;6.788;2023-03-03T19:48:24;2.60;99.90
9215;DHT22;4642;51.364;6.788;2023-03-03T19:51:08;2.60;99.90
9215;DHT22;4642;51.364;6.788;2023-03-03T19:59:24;2.60;99.90
9215;DHT22;4642;51.364;6.788;2023-03-03T20:02:07;2.60;99.90
9215;DHT22;4642;51.364;6.788;2023-03-03T20:07:41;2.60;99.90
9215;DHT22;4642;51.364;6.788;2023-03-03T20:13:22;2.60;99.90
9215;DHT22;4642;51.364;6.788;2023-03-03T20:22:12;2.70;99.90
9215;DHT22;4642;51.364;6.788;2023-03-03T20:27:18;2.70;99.90
9215;DHT22;4642;51.364;6.788;2023-03-03T20:32:22;2.80;99.90
9215;DHT22;4642;51.364;6.788;2023-03-03T20:40:30;2.80;99.90
9215;DHT22;4642;51.364;6.788;2023-03-03T20:46:06;2.80;99.90
9215;DHT22;4642;51.364;6.788;2023-03-03T20:51:16;2.90;99.90
9215;DHT22;4642;51.364;6.788;2023-03-03T20:54:03;2.90;99.90
9215;DHT22;4642;51.364;6.788;2023-03-03T20:56:40;2.90;99.90
9215;DHT22;4642;51.364;6.788;2023-03-03T21:02:36;2.90;99.90
9215;DHT22;4642;51.364;6.788;2023-03-03T21:05:17;2.90;99.90
9215;DHT22;4642;51.364;6.788;2023-03-03T21:10:25;3.00;99.90
9215;DHT22;4642;51.364;6.788;2023-03-03T21:12:55;3.00;99.90
9215;DHT22;4642;51.364;6.788;2023-03-03T21:15:30;3.00;99.90
9215;DHT22;4642;51.364;6.788;2023-03-03T21:17:58;3.00;99.90
9215;DHT22;4642;51.364;6.788;2023-03-03T21:20:32;3.00;99.90
9215;DHT22;4642;51.364;6.788;2023-03-03T21:22:59;3.00;99.90
9215;DHT22;4642;51.364;6.788;2023-03-03T21:25:43;3.00;99.90
9215;DHT22;4642;51.364;6.788;2023-03-03T21:28:32;3.00;99.90
9215;DHT22;4642;51.364;6.788;2023-03-03T21:31:18;3.00;99.90
9215;DHT22;4642;51.364;6.788;2023-03-03T21:33:55;3.00;99.90
9215;DHT22;4642;51.364;6.788;2023-03-03T21:36:22;3.00;99.90
9215;DHT22;4642;51.364;6.788;2023-03-03T21:38:52;3.00;99.90
9215;DHT22;4642;51.364;6.788;2023-03-03T21:41:18;3.00;99.90
9215;DHT22;4642;51.364;6.788;2023-03-03T21:43:49;3.10;99.90
9215;DHT22;4642;51.364;6.788;2023-03-03T21:46:23;3.00;99.90
9215;DHT22;4642;51.364;6.788;2023-03-03T21:48:49;3.00;99.90
9215;DHT22;4642;51.364;6.788;2023-03-03T21:51:15;3.10;99.90
9215;DHT22;4642;51.364;6.788;2023-03-03T21:53:42;3.00;99.90
9215;DHT22;4642;51.364;6.788;2023-03-03T21:56:09;3.00;99.90
9215;DHT22;4642;51.364;6.788;2023-03-03T21:58:35;3.00;99.90
9215;DHT22;4642;51.364;6.788;2023-03-03T22:01:03;3.00;99.90
9215;DHT22;4642;51.364;6.788;2023-03-03T22:03:29;3.00;99.90
9215;DHT22;4642;51.364;6.788;2023-03-03T22:05:54;3.10;99.90
9215;DHT22;4642;51.364;6.788;2023-03-03T22:08:20;3.10;99.90
9215;DHT22;4642;51.364;6.788;2023-03-03T22:10:49;3.10;99.90
9215;DHT22;4642;51.364;6.788;2023-03-03T22:13:18;3.10;99.90
9215;DHT22;4642;51.364;6.788;2023-03-03T22:15:46;3.00;99.90
9215;DHT22;4642;51.364;6.788;2023-03-03T22:18:12;3.00;99.90
9215;DHT22;4642;51.364;6.788;2023-03-03T22:20:37;3.00;99.90
9215;DHT22;4642;51.364;6.788;2023-03-03T22:23:03;3.10;99.90